Springfield, New Hampshire
Current Conditions -  °F | °C
As of 2:53 AM on Thursday 29 Jan 2015 (Local Time) from KLEB Reporting Station
Clear Clear  
Wind Chill: -6°   Ceiling: Unl
Heat Index: -6°   Visibility: 10mi
Dew Point: -10°   Wind: 0mph
Humidity: 83%   Direction: NA
Pressure: 30.32"   Gusts: NA
Location:  43.49°N, 72.03°W
Report Text: KLEB 290753Z AUTO 00000KT 10SM CLR M21/M23 A3032 RMK AO2 SLP287 I1000 T12111233
Loading
Personal Weather Stations






























Interactive Weather Map New forecast layout! Learn more

10-Day Weather Forecast

Advertisements
Track Severe Weather on mobile